createdAt,value
2023-05-02T00:03:57.173Z,100.00
2023-05-02T00:09:00.499Z,100.00
2023-05-02T00:14:02.155Z,99.60
2023-05-02T00:19:03.878Z,99.46
2023-05-02T00:24:07.322Z,99.18
2023-05-02T00:29:08.955Z,98.80
2023-05-02T00:34:10.752Z,100.00
2023-05-02T00:39:14.083Z,98.72
2023-05-02T00:44:15.847Z,98.70
2023-05-02T00:49:17.844Z,100.00
2023-05-02T00:54:21.070Z,100.00
2023-05-02T00:59:22.990Z,100.00
2023-05-02T01:04:35.010Z,100.00
2023-05-02T01:09:47.050Z,100.00
2023-05-02T01:14:53.210Z,100.00
2023-05-02T01:19:58.316Z,100.00
2023-05-02T01:25:08.796Z,99.41
2023-05-02T01:30:14.696Z,98.26
2023-05-02T01:35:18.121Z,99.75
2023-05-02T01:40:21.699Z,100.00
2023-05-02T01:45:28.037Z,99.58
2023-05-02T01:50:30.119Z,100.00
2023-05-02T01:55:36.016Z,100.00
2023-05-02T02:00:40.570Z,100.00
2023-05-02T02:05:43.012Z,100.00
2023-05-02T02:10:49.493Z,99.03
2023-05-02T02:15:59.195Z,97.56
2023-05-02T02:21:01.165Z,99.98
2023-05-02T02:26:04.883Z,99.67
2023-05-02T02:31:08.029Z,100.00
2023-05-02T02:36:15.353Z,100.00
2023-05-02T02:41:26.336Z,100.00
2023-05-02T02:46:45.124Z,100.00
2023-05-02T02:51:56.322Z,100.00
2023-05-02T02:57:01.621Z,100.00
2023-05-02T03:02:07.640Z,100.00
2023-05-02T03:07:09.851Z,100.00
2023-05-02T03:12:12.222Z,100.00
2023-05-02T03:17:15.436Z,100.00
2023-05-02T03:22:17.148Z,100.00
2023-05-02T03:27:18.921Z,100.00
2023-05-02T03:32:22.167Z,100.00
2023-05-02T03:37:23.968Z,100.00
2023-05-02T03:42:25.804Z,100.00
2023-05-02T03:47:28.898Z,100.00
2023-05-02T03:52:30.590Z,100.00
2023-05-02T03:57:32.256Z,100.00
2023-05-02T04:02:35.500Z,100.00
2023-05-02T04:07:37.540Z,100.00
2023-05-02T04:12:39.289Z,100.00
2023-05-02T04:17:42.575Z,100.00
2023-05-02T04:22:44.332Z,100.00
2023-05-02T04:27:45.992Z,100.00
2023-05-02T04:32:49.158Z,100.00
2023-05-02T04:37:50.913Z,100.00
2023-05-02T04:42:52.702Z,100.00
2023-05-02T04:47:55.941Z,100.00
2023-05-02T04:52:59.433Z,100.00
2023-05-02T04:58:01.219Z,100.00
2023-05-02T05:03:04.403Z,100.00
2023-05-02T05:08:06.459Z,100.00
2023-05-02T05:13:08.110Z,100.00
2023-05-02T05:18:11.357Z,100.00
2023-05-02T05:23:13.197Z,100.00
2023-05-02T05:28:14.849Z,100.00
2023-05-02T05:33:17.969Z,100.00
2023-05-02T05:38:19.815Z,100.00
2023-05-02T05:43:21.498Z,100.00
2023-05-02T05:48:24.716Z,100.00
2023-05-02T05:53:26.415Z,100.00
2023-05-02T05:58:28.193Z,100.00
2023-05-02T06:03:31.628Z,100.00
2023-05-02T06:08:33.436Z,100.00
2023-05-02T06:13:35.120Z,100.00
2023-05-02T06:18:38.290Z,100.00
2023-05-02T06:23:40.225Z,100.00
2023-05-02T06:28:41.968Z,100.00
2023-05-02T06:33:44.937Z,100.00
2023-05-02T06:38:47.665Z,100.00
2023-05-02T06:43:49.898Z,100.00
2023-05-02T06:48:53.179Z,100.00
2023-05-02T06:53:54.907Z,100.00
2023-05-02T06:58:56.821Z,100.00
2023-05-02T07:04:01.139Z,100.00
2023-05-02T07:09:05.363Z,100.00
2023-05-02T07:14:07.252Z,100.00
2023-05-02T07:19:10.466Z,100.00
2023-05-02T07:24:15.442Z,100.00
2023-05-02T07:29:17.398Z,100.00
2023-05-02T07:34:20.441Z,100.00
2023-05-02T07:39:23.027Z,100.00
2023-05-02T07:44:24.690Z,100.00
2023-05-02T07:49:27.932Z,100.00
2023-05-02T07:54:29.669Z,100.00
2023-05-02T07:59:31.409Z,100.00
2023-05-02T08:04:34.686Z,100.00
2023-05-02T08:09:36.493Z,100.00
2023-05-02T08:14:38.125Z,100.00
2023-05-02T08:19:41.128Z,100.00
2023-05-02T08:24:44.565Z,100.00
2023-05-02T08:29:46.489Z,100.00
2023-05-02T08:34:49.508Z,100.00
2023-05-02T08:39:51.242Z,100.00
2023-05-02T08:44:52.972Z,100.00
2023-05-02T08:49:57.729Z,100.00
2023-05-02T08:55:01.419Z,100.00
2023-05-02T09:00:04.183Z,100.00
2023-05-02T09:05:11.549Z,100.00
2023-05-02T09:10:13.435Z,100.00
2023-05-02T09:15:19.001Z,100.00
2023-05-02T09:20:23.998Z,100.00
2023-05-02T09:25:25.714Z,100.00
2023-05-02T09:30:27.443Z,100.00
2023-05-02T09:35:30.668Z,100.00
2023-05-02T09:40:32.467Z,100.00
2023-05-02T09:45:34.353Z,100.00
2023-05-02T09:50:38.533Z,100.00
2023-05-02T09:55:40.199Z,100.00
2023-05-02T10:00:43.705Z,99.37
2023-05-02T10:05:50.422Z,100.00
2023-05-02T10:10:55.276Z,99.56
2023-05-02T10:16:00.956Z,99.70
2023-05-02T10:21:09.301Z,96.59
2023-05-02T10:26:16.993Z,100.00
2023-05-02T10:31:19.399Z,100.00
2023-05-02T10:36:23.320Z,100.00
2023-05-02T10:41:27.570Z,100.00
2023-05-02T10:46:34.063Z,100.00
2023-05-02T10:51:39.842Z,98.16
2023-05-02T10:57:06.660Z,100.00
2023-05-02T11:02:41.785Z,97.86
2023-05-02T11:07:45.022Z,100.00
2023-05-02T11:12:48.258Z,100.00
2023-05-02T11:18:00.469Z,99.74
2023-05-02T11:23:23.451Z,98.30
2023-05-02T11:28:43.615Z,94.52
2023-05-02T11:33:56.339Z,95.10
2023-05-02T11:39:00.267Z,93.90
2023-05-02T11:44:05.116Z,92.54
2023-05-02T11:49:09.001Z,90.21
2023-05-02T11:54:19.185Z,91.96
2023-05-02T11:59:20.920Z,93.90
2023-05-02T12:04:22.845Z,89.76
2023-05-02T12:09:26.174Z,94.14
2023-05-02T12:14:28.772Z,92.21
2023-05-02T12:19:30.962Z,88.44
2023-05-02T12:24:34.302Z,89.91
2023-05-02T12:29:40.532Z,86.89
2023-05-02T12:34:42.375Z,89.99
2023-05-02T12:39:45.629Z,86.71
2023-05-02T12:44:48.873Z,84.25
2023-05-02T12:49:51.529Z,85.66
2023-05-02T12:55:14.856Z,87.05
2023-05-02T13:00:17.013Z,87.12
2023-05-02T13:05:19.586Z,89.58
2023-05-02T13:10:22.981Z,87.72
2023-05-02T13:15:24.879Z,88.49
2023-05-02T13:20:26.829Z,88.27
2023-05-02T13:25:29.931Z,87.78
2023-05-02T13:30:32.014Z,85.27
2023-05-02T13:35:35.335Z,83.65
2023-05-02T13:40:38.669Z,84.49
2023-05-02T13:45:40.512Z,87.41
2023-05-02T13:50:42.362Z,82.51
2023-05-02T13:55:45.734Z,83.59
2023-05-02T14:00:47.766Z,83.26
2023-05-02T14:05:49.435Z,79.54
2023-05-02T14:10:52.901Z,79.72
2023-05-02T14:15:55.067Z,79.71
2023-05-02T14:20:56.862Z,82.47
2023-05-02T14:25:59.887Z,79.27
2023-05-02T14:31:01.562Z,80.15
2023-05-02T14:36:03.693Z,78.38
2023-05-02T14:41:06.815Z,78.37
2023-05-02T14:46:08.561Z,76.59
2023-05-02T14:51:10.224Z,76.95
2023-05-02T14:56:14.007Z,78.45
2023-05-02T15:01:16.535Z,77.99
2023-05-02T15:06:18.414Z,75.04
2023-05-02T15:11:21.490Z,78.54
2023-05-02T15:16:23.273Z,76.36
2023-05-02T15:21:25.027Z,76.56
2023-05-02T15:26:28.257Z,75.38
2023-05-02T15:31:29.995Z,75.13
2023-05-02T15:36:31.785Z,76.33
2023-05-02T15:41:34.872Z,73.76
2023-05-02T15:46:36.622Z,74.26
2023-05-02T15:51:38.346Z,74.70
2023-05-02T15:56:41.869Z,74.92
2023-05-02T16:01:43.524Z,73.64
2023-05-02T16:06:45.309Z,75.11
2023-05-02T16:11:48.328Z,77.27
2023-05-02T16:16:50.141Z,73.43
2023-05-02T16:21:51.920Z,74.97
2023-05-02T16:26:55.009Z,77.92
2023-05-02T16:31:56.808Z,74.46
2023-05-02T16:36:58.608Z,72.99
2023-05-02T16:42:01.678Z,72.86
2023-05-02T16:47:03.548Z,71.32
2023-05-02T16:52:05.419Z,72.77
2023-05-02T16:57:08.460Z,73.40
2023-05-02T17:02:10.274Z,74.20
2023-05-02T17:07:12.190Z,73.24
2023-05-02T17:12:15.409Z,70.46
2023-05-02T17:17:17.172Z,71.35
2023-05-02T17:22:19.007Z,71.32
2023-05-02T17:27:22.517Z,69.81
2023-05-02T17:32:24.219Z,71.59
2023-05-02T17:37:25.929Z,69.30
2023-05-02T17:42:28.998Z,72.59
2023-05-02T17:47:30.767Z,71.54
2023-05-02T17:52:32.439Z,69.59
2023-05-02T17:57:35.497Z,69.03
2023-05-02T18:02:37.254Z,71.47
2023-05-02T18:07:38.930Z,71.51
2023-05-02T18:12:42.007Z,74.13
2023-05-02T18:17:43.693Z,74.46
2023-05-02T18:22:45.423Z,74.84
2023-05-02T18:27:48.455Z,72.65
2023-05-02T18:32:50.187Z,73.88
2023-05-02T18:37:51.868Z,72.14
2023-05-02T18:42:54.871Z,74.87
2023-05-02T18:47:56.639Z,75.49
2023-05-02T18:52:58.458Z,75.68
2023-05-02T18:58:01.563Z,75.55
2023-05-02T19:03:03.424Z,75.16
2023-05-02T19:08:05.221Z,75.43
2023-05-02T19:13:08.347Z,75.55
2023-05-02T19:18:10.044Z,75.92
2023-05-02T19:23:19.596Z,74.93
2023-05-02T19:28:26.474Z,75.72
2023-05-02T19:33:28.183Z,74.83
2023-05-02T19:38:29.865Z,76.45
2023-05-02T19:43:33.135Z,77.13
2023-05-02T19:48:34.859Z,76.74
2023-05-02T19:53:38.040Z,77.40
2023-05-02T19:58:41.216Z,77.48
2023-05-02T20:03:43.005Z,77.56
2023-05-02T20:08:44.749Z,77.57
2023-05-02T20:13:47.805Z,77.26
2023-05-02T20:18:49.841Z,77.79
2023-05-02T20:23:51.490Z,77.92
2023-05-02T20:28:54.526Z,77.64
2023-05-02T20:33:56.231Z,78.10
2023-05-02T20:38:57.985Z,77.22
2023-05-02T20:44:01.052Z,77.60
2023-05-02T20:49:02.685Z,77.64
2023-05-02T20:54:04.567Z,76.77
2023-05-02T20:59:07.596Z,76.35
2023-05-02T21:04:09.367Z,76.22
2023-05-02T21:09:11.093Z,75.32
2023-05-02T21:14:14.176Z,75.79
2023-05-02T21:19:15.960Z,75.67
2023-05-02T21:24:17.640Z,76.01
2023-05-02T21:29:20.690Z,75.30
2023-05-02T21:34:22.380Z,74.65
2023-05-02T21:39:26.118Z,73.87
2023-05-02T21:44:29.316Z,75.02
2023-05-02T21:49:31.088Z,74.88
2023-05-02T21:54:32.848Z,75.11
2023-05-02T21:59:35.908Z,74.24
2023-05-02T22:04:37.640Z,74.62
2023-05-02T22:09:39.395Z,74.73
2023-05-02T22:14:45.794Z,74.71
2023-05-02T22:19:48.502Z,74.46
2023-05-02T22:24:50.160Z,74.90
2023-05-02T22:29:53.275Z,75.38
2023-05-02T22:34:54.913Z,75.76
2023-05-02T22:39:56.645Z,75.41
2023-05-02T22:44:59.841Z,75.70
2023-05-02T22:50:01.649Z,75.34
2023-05-02T22:55:04.003Z,74.76
2023-05-02T23:00:09.119Z,74.90
2023-05-02T23:05:10.850Z,76.26
2023-05-02T23:10:12.535Z,75.40
2023-05-02T23:15:15.591Z,76.25
2023-05-02T23:20:18.739Z,75.76
2023-05-02T23:25:21.624Z,74.32
2023-05-02T23:30:24.657Z,75.34
2023-05-02T23:35:26.501Z,75.27
2023-05-02T23:40:28.371Z,75.53
2023-05-02T23:45:31.362Z,75.81
2023-05-02T23:50:33.059Z,76.26
2023-05-02T23:55:34.813Z,75.51
